createdAt,value
2019-05-16T00:01:04.461Z,13.50
2019-05-16T00:03:30.666Z,12.28
2019-05-16T00:05:58.449Z,11.97
2019-05-16T00:08:24.859Z,11.00
2019-05-16T00:10:51.373Z,10.03
2019-05-16T00:13:18.670Z,10.93
2019-05-16T00:15:44.995Z,11.60
2019-05-16T00:18:11.339Z,12.58
2019-05-16T00:20:38.682Z,11.48
2019-05-16T00:23:04.998Z,12.37
2019-05-16T00:25:31.776Z,12.03
2019-05-16T00:27:58.670Z,12.47
2019-05-16T00:30:25.033Z,12.03
2019-05-16T00:32:51.291Z,14.78
2019-05-16T00:35:18.385Z,12.20
2019-05-16T00:37:44.705Z,12.93
2019-05-16T00:40:11.282Z,12.10
2019-05-16T00:42:39.143Z,12.35
2019-05-16T00:45:05.916Z,14.33
2019-05-16T00:47:32.107Z,12.53
2019-05-16T00:49:58.384Z,11.75
2019-05-16T00:52:24.664Z,14.05
2019-05-16T00:54:50.968Z,14.35
2019-05-16T00:57:18.800Z,12.98
2019-05-16T00:59:45.668Z,13.35
2019-05-16T01:02:11.908Z,11.97
2019-05-16T01:04:38.247Z,15.15
2019-05-16T01:07:04.415Z,11.22
2019-05-16T01:09:30.717Z,12.78
2019-05-16T01:11:57.924Z,14.65
2019-05-16T01:14:24.432Z,9.48
2019-05-16T01:16:51.889Z,13.08
2019-05-16T01:19:18.691Z,10.28
2019-05-16T01:21:45.218Z,13.48
2019-05-16T01:24:11.303Z,15.53
2019-05-16T01:26:39.164Z,12.68
2019-05-16T01:29:05.583Z,15.43
2019-05-16T01:31:31.771Z,14.40
2019-05-16T01:33:58.354Z,12.13
2019-05-16T01:36:36.507Z,11.18
2019-05-16T01:38:52.872Z,11.30
2019-05-16T01:41:19.079Z,12.07
2019-05-16T01:43:45.247Z,10.68
2019-05-16T01:46:11.413Z,10.48
2019-05-16T01:48:38.102Z,13.83
2019-05-16T01:51:04.496Z,13.90
2019-05-16T01:53:30.621Z,11.25
2019-05-16T01:55:58.040Z,12.13
2019-05-16T01:58:24.271Z,16.95
2019-05-16T02:01:03.046Z,10.72
2019-05-16T02:03:19.091Z,12.88
2019-05-16T02:05:45.515Z,14.60
2019-05-16T02:08:12.340Z,13.93
2019-05-16T02:10:38.481Z,10.80
2019-05-16T02:13:04.816Z,11.88
2019-05-16T02:15:31.077Z,13.40
2019-05-16T02:17:58.665Z,13.10
2019-05-16T02:20:25.193Z,12.50
2019-05-16T02:22:51.553Z,11.53
2019-05-16T02:25:18.686Z,10.72
2019-05-16T02:27:45.018Z,9.18
2019-05-16T02:30:13.644Z,10.60
2019-05-16T02:32:41.825Z,10.55
2019-05-16T02:35:11.718Z,9.88
2019-05-16T02:37:36.993Z,13.90
2019-05-16T02:40:05.713Z,10.60
2019-05-16T02:42:32.115Z,11.80
2019-05-16T02:45:01.875Z,10.38
2019-05-16T02:47:26.329Z,10.45
2019-05-16T02:49:52.434Z,14.35
2019-05-16T02:52:21.662Z,12.18
2019-05-16T02:54:46.759Z,14.18
2019-05-16T02:57:12.954Z,13.80
2019-05-16T02:59:41.623Z,15.78
2019-05-16T03:02:07.599Z,17.12
2019-05-16T03:04:33.901Z,16.52
2019-05-16T03:07:00.798Z,13.22
2019-05-16T03:09:30.493Z,14.75
2019-05-16T03:11:56.962Z,15.48
2019-05-16T03:14:23.557Z,16.35
2019-05-16T03:16:52.580Z,16.40
2019-05-16T03:19:21.787Z,16.42
2019-05-16T03:21:50.842Z,15.00
2019-05-16T03:24:20.601Z,20.97
2019-05-16T03:26:46.520Z,17.20
2019-05-16T03:29:12.690Z,20.92
2019-05-16T03:31:44.812Z,30.37
2019-05-16T03:34:08.058Z,24.92
2019-05-16T03:36:35.173Z,27.40
2019-05-16T03:39:04.542Z,15.03
2019-05-16T03:41:30.986Z,17.65
2019-05-16T03:43:57.304Z,42.25
2019-05-16T03:46:25.200Z,15.58
2019-05-16T03:48:52.349Z,16.45
2019-05-16T03:51:21.321Z,15.50
2019-05-16T03:53:46.765Z,16.48
2019-05-16T03:56:12.937Z,18.62
2019-05-16T03:58:41.593Z,17.67
2019-05-16T04:01:10.783Z,12.78
2019-05-16T04:03:35.395Z,14.30
2019-05-16T04:06:01.730Z,13.28
2019-05-16T04:08:30.707Z,13.72
2019-05-16T04:10:56.013Z,13.25
2019-05-16T04:13:22.430Z,12.55
2019-05-16T04:15:51.749Z,11.40
2019-05-16T04:18:17.069Z,12.13
2019-05-16T04:20:43.316Z,12.60
2019-05-16T04:23:11.248Z,10.10
2019-05-16T04:25:40.810Z,11.38
2019-05-16T04:28:07.747Z,13.50
2019-05-16T04:30:34.152Z,11.57
2019-05-16T04:33:01.891Z,11.40
2019-05-16T04:35:31.534Z,10.68
2019-05-16T04:37:56.477Z,9.20
2019-05-16T04:40:22.777Z,10.25
2019-05-16T04:42:51.251Z,10.82
2019-05-16T04:45:21.014Z,12.40
2019-05-16T04:47:46.183Z,10.48
2019-05-16T04:50:12.883Z,13.95
2019-05-16T04:52:41.791Z,8.95
2019-05-16T04:55:11.887Z,8.73
2019-05-16T04:57:42.154Z,10.85
2019-05-16T05:00:10.854Z,14.43
2019-05-16T05:02:35.915Z,8.68
2019-05-16T05:05:02.369Z,9.10
2019-05-16T05:07:31.237Z,10.10
2019-05-16T05:09:56.995Z,9.05
2019-05-16T05:12:23.354Z,10.32
2019-05-16T05:14:51.037Z,15.28
2019-05-16T05:17:17.453Z,26.93
2019-05-16T05:19:44.657Z,11.38
2019-05-16T05:22:10.934Z,12.20
2019-05-16T05:24:37.027Z,8.18
2019-05-16T05:27:03.315Z,9.35
2019-05-16T05:29:30.720Z,8.15
2019-05-16T05:31:57.129Z,10.03
2019-05-16T05:34:23.336Z,8.83
2019-05-16T05:36:51.179Z,10.80
2019-05-16T05:39:19.877Z,10.72
2019-05-16T05:41:45.628Z,9.15
2019-05-16T05:44:11.917Z,10.68
2019-05-16T05:46:40.068Z,10.65
2019-05-16T05:49:06.444Z,10.82
2019-05-16T05:51:32.697Z,8.00
2019-05-16T05:54:00.185Z,10.78
2019-05-16T05:56:26.497Z,11.40
2019-05-16T05:58:52.812Z,7.87
2019-05-16T06:01:20.605Z,7.87
2019-05-16T06:03:47.016Z,10.75
2019-05-16T06:06:13.275Z,9.68
2019-05-16T06:08:40.969Z,10.65
2019-05-16T06:11:07.375Z,11.90
2019-05-16T06:13:33.585Z,10.82
2019-05-16T06:16:00.249Z,10.25
2019-05-16T06:18:26.610Z,13.03
2019-05-16T06:20:52.709Z,12.53
2019-05-16T06:23:20.805Z,11.68
2019-05-16T06:25:46.992Z,10.70
2019-05-16T06:28:13.212Z,11.43
2019-05-16T06:30:40.746Z,10.00
2019-05-16T06:33:07.261Z,10.88
2019-05-16T06:35:33.351Z,10.60
2019-05-16T06:38:00.631Z,10.30
2019-05-16T06:40:26.947Z,10.00
2019-05-16T06:42:53.150Z,8.43
2019-05-16T06:45:20.701Z,9.30
2019-05-16T06:47:47.383Z,10.48
2019-05-16T06:50:13.608Z,6.47
2019-05-16T06:52:40.834Z,7.12
2019-05-16T06:55:10.077Z,6.67
2019-05-16T06:57:36.449Z,6.12
2019-05-16T07:00:05.542Z,4.87
2019-05-16T07:02:34.589Z,6.72
2019-05-16T07:05:01.152Z,7.28
2019-05-16T07:07:27.419Z,5.53
2019-05-16T07:10:00.041Z,6.67
2019-05-16T07:12:21.741Z,3.87
2019-05-16T07:14:50.315Z,3.87
2019-05-16T07:17:16.090Z,3.90
2019-05-16T07:19:42.416Z,4.15
2019-05-16T07:22:11.096Z,3.72
2019-05-16T07:24:36.907Z,4.37
2019-05-16T07:27:03.152Z,3.02
2019-05-16T07:29:30.877Z,2.90
2019-05-16T07:31:57.322Z,3.67
2019-05-16T07:34:23.416Z,2.42
2019-05-16T07:36:50.308Z,3.17
2019-05-16T07:39:16.734Z,4.05
2019-05-16T07:41:42.950Z,3.00
2019-05-16T07:44:10.845Z,3.45
2019-05-16T07:46:37.279Z,3.80
2019-05-16T07:49:03.459Z,3.10
2019-05-16T07:51:31.040Z,3.90
2019-05-16T07:53:59.650Z,4.92
2019-05-16T07:56:25.478Z,4.58
2019-05-16T07:58:51.848Z,5.53
2019-05-16T08:01:20.051Z,4.17
2019-05-16T08:03:46.379Z,4.97
2019-05-16T08:06:12.611Z,5.20
2019-05-16T08:08:40.373Z,5.95
2019-05-16T08:11:07.053Z,3.70
2019-05-16T08:13:33.345Z,4.55
2019-05-16T08:16:01.188Z,5.15
2019-05-16T08:18:30.042Z,5.65
2019-05-16T08:20:55.833Z,4.12
2019-05-16T08:25:51.172Z,3.87
2019-05-16T08:28:20.495Z,4.12
2019-05-16T08:30:45.406Z,5.33
2019-05-16T08:35:41.295Z,5.12
2019-05-16T08:38:07.762Z,5.25
2019-05-16T08:43:02.073Z,3.50
2019-05-16T08:45:31.339Z,2.50
2019-05-16T08:47:56.299Z,3.10
2019-05-16T08:50:06.466Z,4.53
2019-05-16T08:50:08.651Z,4.65
2019-05-16T08:50:22.656Z,3.27
2019-05-16T08:52:52.703Z,2.80
2019-05-16T08:55:17.155Z,2.85
2019-05-16T08:57:43.374Z,3.70
2019-05-16T09:00:14.713Z,7.65
2019-05-16T09:02:42.044Z,4.25
2019-05-16T09:05:13.144Z,4.10
2019-05-16T09:07:35.442Z,4.70
2019-05-16T09:10:03.657Z,5.28
2019-05-16T09:10:37.994Z,4.53
2019-05-16T09:12:29.746Z,3.08
2019-05-16T09:14:59.385Z,3.85
2019-05-16T09:17:27.214Z,3.83
2019-05-16T09:19:52.517Z,3.10
2019-05-16T09:22:18.682Z,3.58
2019-05-16T09:24:47.835Z,4.28
2019-05-16T09:27:13.513Z,4.20
2019-05-16T09:29:39.859Z,4.42
2019-05-16T09:32:12.503Z,3.33
2019-05-16T09:34:37.325Z,4.10
2019-05-16T09:37:02.384Z,3.50
2019-05-16T09:39:28.794Z,3.80
2019-05-16T09:41:58.374Z,4.45
2019-05-16T09:44:23.127Z,3.17
2019-05-16T09:46:49.403Z,3.40
2019-05-16T09:49:23.919Z,3.80
2019-05-16T09:51:43.642Z,3.70
2019-05-16T09:54:09.776Z,2.47
2019-05-16T09:56:37.047Z,2.95
2019-05-16T09:59:03.600Z,2.95
2019-05-16T10:01:29.842Z,2.50
2019-05-16T10:03:56.181Z,3.42
2019-05-16T10:06:22.367Z,3.75
2019-05-16T10:08:48.577Z,3.40
2019-05-16T10:11:17.870Z,3.45
2019-05-16T10:13:43.049Z,3.05
2019-05-16T10:16:09.498Z,4.53
2019-05-16T10:18:37.017Z,4.05
2019-05-16T10:21:04.067Z,4.28
2019-05-16T10:23:30.387Z,3.05
2019-05-16T10:25:56.855Z,3.58
2019-05-16T10:28:23.112Z,5.25
2019-05-16T10:30:50.144Z,5.05
2019-05-16T10:33:18.858Z,4.30
2019-05-16T10:35:47.741Z,4.25
2019-05-16T10:38:13.010Z,4.40
2019-05-16T10:40:39.384Z,4.00
2019-05-16T10:43:07.234Z,5.42
2019-05-16T10:45:33.977Z,5.25
2019-05-16T10:48:00.073Z,5.35
2019-05-16T10:50:27.615Z,6.60
2019-05-16T10:53:20.490Z,4.80
2019-05-16T10:55:22.339Z,5.08
2019-05-16T10:57:48.990Z,5.00
2019-05-16T11:00:36.827Z,4.58
2019-05-16T11:02:44.243Z,4.58
2019-05-16T11:05:24.905Z,5.65
2019-05-16T11:07:38.907Z,6.05
2019-05-16T11:10:07.012Z,6.28
2019-05-16T11:12:48.779Z,6.12
2019-05-16T11:15:01.851Z,6.55
2019-05-16T11:17:28.163Z,5.92
2019-05-16T11:19:54.269Z,7.60
2019-05-16T11:22:20.477Z,6.20
2019-05-16T11:24:47.143Z,6.67
2019-05-16T11:27:13.584Z,7.50
2019-05-16T11:29:39.738Z,6.67
2019-05-16T11:32:06.919Z,8.30
2019-05-16T11:34:33.346Z,6.92
2019-05-16T11:36:59.568Z,7.03
2019-05-16T11:39:25.675Z,6.67
2019-05-16T11:41:51.905Z,9.45
2019-05-16T11:44:18.069Z,7.30
2019-05-16T11:46:44.311Z,7.53
2019-05-16T11:49:10.593Z,7.50
2019-05-16T11:51:38.391Z,7.55
2019-05-16T11:54:06.943Z,6.60
2019-05-16T11:56:32.981Z,7.83
2019-05-16T11:58:59.216Z,8.50
2019-05-16T12:01:27.460Z,8.55
2019-05-16T12:03:53.417Z,6.97
2019-05-16T12:06:19.768Z,6.83
2019-05-16T12:08:46.747Z,7.35
2019-05-16T12:11:13.155Z,7.05
2019-05-16T12:13:39.282Z,6.83
2019-05-16T12:16:07.533Z,7.22
2019-05-16T12:18:33.511Z,6.40
2019-05-16T12:20:59.730Z,8.15
2019-05-16T12:23:27.663Z,9.63
2019-05-16T12:25:56.491Z,7.10
2019-05-16T12:28:22.086Z,7.22
2019-05-16T12:30:48.403Z,7.65
2019-05-16T12:33:14.640Z,5.75
2019-05-16T12:35:40.999Z,5.25
2019-05-16T12:38:08.127Z,5.78
2019-05-16T12:40:37.599Z,7.20
2019-05-16T12:43:07.531Z,7.22
2019-05-16T12:45:35.012Z,7.55
2019-05-16T12:48:01.723Z,6.75
2019-05-16T12:50:28.897Z,8.45
2019-05-16T12:52:56.943Z,7.67
2019-05-16T12:55:23.244Z,8.78
2019-05-16T12:57:50.077Z,9.40
2019-05-16T13:00:18.952Z,9.53
2019-05-16T13:02:47.277Z,8.85
2019-05-16T13:05:13.652Z,8.40
2019-05-16T13:07:39.990Z,8.38
2019-05-16T13:10:08.329Z,8.80
2019-05-16T13:12:37.419Z,8.70
2019-05-16T13:15:03.795Z,8.38
2019-05-16T13:17:29.907Z,10.32
2019-05-16T13:19:57.555Z,10.28
2019-05-16T13:22:23.860Z,9.48
2019-05-16T13:24:50.129Z,8.95
2019-05-16T13:27:22.600Z,8.88
2019-05-16T13:29:47.715Z,7.47
2019-05-16T13:32:13.306Z,8.53
2019-05-16T13:34:39.505Z,7.50
2019-05-16T13:37:07.525Z,9.98
2019-05-16T13:39:33.996Z,11.10
2019-05-16T13:42:00.303Z,8.73
2019-05-16T13:44:27.492Z,9.50
2019-05-16T13:46:53.991Z,9.63
2019-05-16T13:49:20.201Z,9.25
2019-05-16T13:51:46.535Z,9.60
2019-05-16T13:54:12.689Z,9.28
2019-05-16T13:56:38.973Z,9.00
2019-05-16T13:59:07.633Z,10.13
2019-05-16T14:01:33.302Z,12.05
2019-05-16T14:03:59.447Z,9.23
2019-05-16T14:06:25.705Z,10.40
2019-05-16T14:08:52.033Z,11.08
2019-05-16T14:11:18.203Z,9.45
2019-05-16T14:13:46.779Z,11.22
2019-05-16T14:16:12.748Z,11.22
2019-05-16T14:18:38.939Z,12.80
2019-05-16T14:21:06.933Z,10.45
2019-05-16T14:23:33.123Z,11.55
2019-05-16T14:25:59.367Z,19.37
2019-05-16T14:28:25.565Z,14.33
2019-05-16T14:30:51.795Z,11.35
2019-05-16T14:33:18.082Z,12.37
2019-05-16T14:35:47.309Z,10.58
2019-05-16T14:38:13.739Z,11.83
2019-05-16T14:40:39.841Z,12.33
2019-05-16T14:43:08.250Z,13.83
2019-05-16T14:45:34.268Z,11.48
2019-05-16T14:48:00.483Z,10.38
2019-05-16T14:50:27.684Z,13.28
2019-05-16T14:52:56.533Z,11.78
2019-05-16T14:55:22.310Z,16.20
2019-05-16T14:57:48.566Z,14.47
2019-05-16T15:00:18.111Z,14.33
2019-05-16T15:02:43.541Z,16.10
2019-05-16T15:05:11.143Z,12.53
2019-05-16T15:07:37.759Z,14.78
2019-05-16T15:10:07.412Z,13.85
2019-05-16T15:12:33.907Z,13.20
2019-05-16T15:15:16.096Z,14.95
2019-05-16T15:17:28.249Z,15.03
2019-05-16T15:19:57.004Z,14.98
2019-05-16T15:22:22.819Z,14.47
2019-05-16T15:24:48.978Z,16.48
2019-05-16T15:27:17.049Z,15.45
2019-05-16T15:29:43.562Z,17.23
2019-05-16T15:32:09.669Z,17.20
2019-05-16T15:34:38.074Z,19.17
2019-05-16T15:37:04.155Z,15.85
2019-05-16T15:39:31.021Z,16.35
2019-05-16T15:41:57.352Z,13.83
2019-05-16T15:44:23.586Z,16.20
2019-05-16T15:46:49.992Z,14.43
2019-05-16T15:49:17.170Z,16.07
2019-05-16T15:51:43.732Z,15.60
2019-05-16T15:54:19.442Z,15.80
2019-05-16T15:56:48.270Z,14.33
2019-05-16T15:59:14.444Z,18.48
2019-05-16T16:01:40.746Z,20.60
2019-05-16T16:04:07.242Z,17.98
2019-05-16T16:06:33.580Z,17.62
2019-05-16T16:08:59.782Z,15.53
2019-05-16T16:11:27.254Z,16.70
2019-05-16T16:13:53.638Z,21.45
2019-05-16T16:16:19.942Z,14.20
2019-05-16T16:18:47.126Z,14.70
2019-05-16T16:21:13.405Z,14.35
2019-05-16T16:23:39.595Z,15.68
2019-05-16T16:26:07.509Z,16.62
2019-05-16T16:28:33.683Z,20.15
2019-05-16T16:31:00.006Z,19.07
2019-05-16T16:33:29.962Z,22.13
2019-05-16T16:35:56.960Z,19.60
2019-05-16T16:38:22.549Z,19.87
2019-05-16T16:40:48.727Z,16.35
2019-05-16T16:43:14.875Z,17.73
2019-05-16T16:45:41.134Z,16.50
2019-05-16T16:48:07.835Z,18.77
2019-05-16T16:50:34.326Z,20.27
2019-05-16T16:53:00.458Z,17.87
2019-05-16T16:55:27.537Z,18.65
2019-05-16T16:57:55.870Z,19.45
2019-05-16T17:00:22.510Z,20.48
2019-05-16T17:03:01.655Z,20.30
2019-05-16T17:05:17.090Z,21.45
2019-05-16T17:07:44.602Z,19.02
2019-05-16T17:10:11.319Z,37.03
2019-05-16T17:12:41.241Z,19.55
2019-05-16T17:15:08.503Z,18.55
2019-05-16T17:17:37.360Z,21.55
2019-05-16T17:20:07.656Z,19.75
2019-05-16T17:22:34.140Z,15.32
2019-05-16T17:25:00.594Z,19.80
2019-05-16T17:27:27.040Z,19.65
2019-05-16T17:29:53.307Z,22.20
2019-05-16T17:32:19.641Z,18.50
2019-05-16T17:34:45.992Z,33.02
2019-05-16T17:37:12.718Z,19.00
2019-05-16T17:40:03.980Z,17.87
2019-05-16T17:42:34.503Z,22.48
2019-05-16T17:45:00.192Z,17.85
2019-05-16T17:47:26.463Z,19.12
2019-05-16T17:49:52.566Z,19.05
2019-05-16T17:52:18.879Z,20.77
2019-05-16T17:54:46.204Z,20.27
2019-05-16T17:57:12.293Z,22.22
2019-05-16T17:59:38.644Z,22.10
2019-05-16T18:02:06.468Z,26.37
2019-05-16T18:04:32.988Z,26.50
2019-05-16T18:06:59.170Z,23.95
2019-05-16T18:09:27.567Z,25.57
2019-05-16T18:11:53.559Z,24.70
2019-05-16T18:14:19.840Z,23.25
2019-05-16T18:16:53.690Z,21.65
2019-05-16T18:19:14.088Z,21.35
2019-05-16T18:21:40.251Z,20.32
2019-05-16T18:24:06.562Z,21.27
2019-05-16T18:26:32.690Z,19.30
2019-05-16T18:28:58.910Z,20.88
2019-05-16T18:31:26.620Z,19.95
2019-05-16T18:33:52.930Z,20.82
2019-05-16T18:36:19.201Z,18.98
2019-05-16T18:38:46.691Z,20.50
2019-05-16T18:41:13.269Z,22.35
2019-05-16T18:43:39.495Z,24.52
2019-05-16T18:46:07.281Z,22.00
2019-05-16T18:48:33.654Z,21.48
2019-05-16T18:51:00.103Z,21.33
2019-05-16T18:53:26.957Z,22.70
2019-05-16T18:55:53.560Z,24.75
2019-05-16T18:58:19.892Z,24.55
2019-05-16T19:00:46.722Z,22.82
2019-05-16T19:03:13.046Z,22.87
2019-05-16T19:05:39.198Z,23.57
2019-05-16T19:08:07.377Z,22.52
2019-05-16T19:10:33.662Z,23.18
2019-05-16T19:13:00.043Z,22.50
2019-05-16T19:15:26.745Z,24.20
2019-05-16T19:17:53.597Z,24.55
2019-05-16T19:20:20.225Z,21.80
2019-05-16T19:22:46.473Z,24.50
2019-05-16T19:25:13.494Z,22.52
2019-05-16T19:27:39.791Z,24.55
2019-05-16T19:30:06.918Z,23.02
2019-05-16T19:32:33.181Z,23.15
2019-05-16T19:34:59.435Z,19.82
2019-05-16T19:37:25.684Z,24.27
2019-05-16T19:39:51.807Z,23.00
2019-05-16T19:42:18.151Z,28.07
2019-05-16T19:44:46.383Z,27.10
2019-05-16T19:47:12.434Z,28.60
2019-05-16T19:49:38.628Z,23.98
2019-05-16T19:52:07.066Z,37.40
2019-05-16T19:54:33.151Z,33.83
2019-05-16T19:56:59.379Z,28.52
2019-05-16T19:59:27.228Z,23.47
2019-05-16T20:01:53.797Z,27.35
2019-05-16T20:04:19.920Z,28.42
2019-05-16T20:06:47.494Z,33.05
2019-05-16T20:09:16.498Z,33.63
2019-05-16T20:11:42.052Z,27.90
2019-05-16T20:14:08.485Z,25.05
2019-05-16T20:16:36.626Z,26.07
2019-05-16T20:19:03.090Z,23.67
2019-05-16T20:21:29.257Z,26.48
2019-05-16T20:23:56.872Z,45.83
2019-05-16T20:26:23.050Z,36.10
2019-05-16T20:28:49.329Z,34.67
2019-05-16T20:31:17.059Z,30.40
2019-05-16T20:33:43.310Z,26.90
2019-05-16T20:36:09.764Z,32.03
2019-05-16T20:38:37.221Z,30.72
2019-05-16T20:41:03.728Z,33.55
2019-05-16T20:43:29.880Z,37.15
2019-05-16T20:46:07.526Z,31.80
2019-05-16T20:48:36.742Z,35.63
2019-05-16T20:51:02.397Z,30.32
2019-05-16T20:53:28.713Z,27.13
2019-05-16T20:55:57.370Z,28.00
2019-05-16T20:58:23.842Z,26.42
2019-05-16T21:00:50.937Z,26.62
2019-05-16T21:03:17.202Z,29.82
2019-05-16T21:05:43.467Z,28.05
2019-05-16T21:08:09.711Z,31.62
2019-05-16T21:10:35.954Z,32.30
2019-05-16T21:13:02.198Z,32.50
2019-05-16T21:15:28.611Z,32.00
2019-05-16T21:17:56.636Z,28.60
2019-05-16T21:20:23.845Z,25.25
2019-05-16T21:22:49.942Z,25.77
2019-05-16T21:25:16.861Z,33.18
2019-05-16T21:27:46.479Z,30.90
2019-05-16T21:30:13.377Z,28.67
2019-05-16T21:32:40.490Z,28.60
2019-05-16T21:35:07.296Z,28.42
2019-05-16T21:37:33.931Z,30.92
2019-05-16T21:40:00.039Z,28.65
2019-05-16T21:42:27.100Z,29.77
2019-05-16T21:44:53.378Z,23.92
2019-05-16T21:47:19.781Z,24.70
2019-05-16T21:49:47.180Z,26.07
2019-05-16T21:52:13.784Z,21.02
2019-05-16T21:54:39.890Z,22.60
2019-05-16T21:57:06.079Z,24.70
2019-05-16T21:59:32.249Z,22.30
2019-05-16T22:01:58.735Z,24.25
2019-05-16T22:04:25.214Z,22.90
2019-05-16T22:06:51.514Z,20.95
2019-05-16T22:09:17.625Z,21.42
2019-05-16T22:11:46.409Z,21.40
2019-05-16T22:14:12.560Z,21.73
2019-05-16T22:16:38.859Z,18.98
2019-05-16T22:19:07.101Z,20.90
2019-05-16T22:21:33.361Z,21.00
2019-05-16T22:23:59.569Z,21.17
2019-05-16T22:26:27.042Z,20.50
2019-05-16T22:28:53.412Z,25.68
2019-05-16T22:31:19.656Z,21.57
2019-05-16T22:33:46.899Z,21.60
2019-05-16T22:36:13.374Z,25.15
2019-05-16T22:38:39.628Z,25.40
2019-05-16T22:41:07.282Z,29.12
2019-05-16T22:43:33.837Z,27.62
2019-05-16T22:46:00.535Z,28.05
2019-05-16T22:48:26.753Z,25.50
2019-05-16T22:50:52.921Z,34.25
2019-05-16T22:53:19.068Z,29.55
2019-05-16T22:55:47.601Z,25.77
2019-05-16T22:58:13.451Z,30.25
2019-05-16T23:00:41.407Z,30.15
2019-05-16T23:03:07.829Z,26.93
2019-05-16T23:05:36.661Z,27.35
2019-05-16T23:08:06.090Z,25.68
2019-05-16T23:10:30.567Z,27.87
2019-05-16T23:12:57.325Z,25.23
2019-05-16T23:15:26.406Z,26.23
2019-05-16T23:17:51.997Z,25.37
2019-05-16T23:20:18.292Z,24.50
2019-05-16T23:22:46.825Z,28.32
2019-05-16T23:25:12.963Z,27.02
2019-05-16T23:27:39.215Z,29.15
2019-05-16T23:30:08.025Z,24.18
2019-05-16T23:32:36.388Z,26.33
2019-05-16T23:35:06.762Z,24.70
2019-05-16T23:37:32.883Z,25.82
2019-05-16T23:39:58.980Z,26.90
2019-05-16T23:42:26.340Z,28.10
2019-05-16T23:44:52.779Z,27.55
2019-05-16T23:47:18.986Z,27.50
2019-05-16T23:49:47.151Z,27.45
2019-05-16T23:52:13.218Z,26.62
2019-05-16T23:54:39.416Z,27.13
2019-05-16T23:57:06.630Z,29.65
2019-05-16T23:59:34.065Z,25.77
